EGKKLIRA

Guest
Details From EGKK - London Gatwick
To LIRA - Ciampino
Flight Number -
Tags Generated
Created
Modified
Stats Distance 769 nm / 1,424 km
Max Altitude 0 ft / 0 m
Waypoints 5
Social Downloads 3
Likes 0
Share VATSIM

Download

Looking for another format? Having issues loading an existing format? Contact us
Advertisement - Login to hide

Notes

Generated

Route

EGKK GELTA MEBUR R1815 LIRA

ID Type Via Altitude Latitude Longitude Leg Dist Tot Dist Heading (true) Name
O EGKK APT - 0 ft / 0 m 51.14691˚ -0.21257˚ - 0 nm - -
GELTA FIX - 0 ft / 0 m 48.50472˚ 4.02222˚ 228 nm 228 nm 132° / 136° -
MEBUR FIX - 0 ft / 0 m 44.75972˚ 9.17167˚ 309 nm 537 nm 135° / 138° -
R1815 FIX - 0 ft / 0 m 41.80806˚ 12.58883˚ 231 nm 769 nm 139° / 141° -
O LIRA APT - 0 ft / 0 m 41.80806˚ 12.58883˚ 0 nm 769 nm 0° / 180° -

Altitude Profile

Advertisement - Login to hide

Weather


0- 5 10 15 20 25 30 35+ Temperature / ° C

Clouds and Precipitation
Forecast for 2017-12-15 06:00 UTC. Updated an hour ago

Ground ~20,000 ft ~40,000 ft Winds

EGKK

Details ICAO EGKK (LGW)
Name London Gatwick
Region United Kingdom
Timezone Europe/London (UTC+0.0)
Stats Elevation 196 ft / 60 m (AMSL)
Location 51.148753° -0.192472°
Runways 2
Magnetic Variation 0.432° W

METAR

EGKK 150220Z 23009KT CAVOK 02/01 Q0990

Decode

TAF

TAF EGKK 142252Z 1500/1606 25006KT 9999 SCT022 PROB30 TEMPO 1500/1501 6000 SHRA BKN012 BECMG 1506/1509 33010KT BKN012 TEMPO 1506/1512 6000 SHRA PROB30 TEMPO 1506/1515 BKN009 BECMG 1516/1519 SCT015 PROB40 TEMPO 1519/1603 BKN012

Decode

Departure Runways

ID Width Length Bearing (true) Bearing (mag) Surface Threshold Offset Overrun Length
08L 148 ft / 45 m 8,377 ft / 2,553 m 77.69° 78.12° Asphalt 1,053 ft / 321 m 0 ft / 0 m
08R 148 ft / 45 m 10,341 ft / 3,152 m 77.59° 78.02° Asphalt 1,289 ft / 393 m 0 ft / 0 m
26L 148 ft / 45 m 10,341 ft / 3,152 m 257.63° 258.06° Asphalt 879 ft / 268 m 600 ft / 183 m
26R 148 ft / 45 m 8,377 ft / 2,553 m 257.71° 258.14° Asphalt 1,365 ft / 416 m 0 ft / 0 m

LIRA

Details ICAO LIRA (CIA)
Name CIAMPINO
Region Italy
Timezone Europe/Rome (UTC+1.0)
Stats Elevation 427 ft / 130 m (AMSL)
Location 41.799228° 12.594917°
Runways 1
Magnetic Variation 3.058° E

METAR

LIRA 150220Z 17006KT 8000 -RA FEW015 SCT025 13/11 Q1010

Decode

TAF

TAF LIRA 142300Z 1500/1524 24014KT 9999 SCT025 BKN050 TEMPO 1500/1503 RA TEMPO 1503/1518 4000 SHRA

Decode

Destination Runways

ID Width Length Bearing (true) Bearing (mag) Surface Threshold Offset Overrun Length
15 154 ft / 47 m 7,246 ft / 2,209 m 152.79° 149.73° Asphalt 0 ft / 0 m 0 ft / 0 m
33 154 ft / 47 m 7,246 ft / 2,209 m 332.80° 329.74° Asphalt 0 ft / 0 m 0 ft / 0 m

Approach Navaids

Runway Type Ident Frequency Range Bearing (true) Bearing (mag) Slope Elevation
15 Localiser CIA 109.90 MHz 18 nm / 33 km 152.81° 149.75° - 426 ft / 130 m (AMSL)
15 Glidescope CIA 109.90 MHz 10 nm / 19 km 152.79° 149.74° 3.00° 384 ft / 117 m (AMSL)

Popular Alternatives